createdAt,value
2022-08-08T00:00:55.558Z,55.37
2022-08-08T00:05:10.891Z,55.48
2022-08-08T00:10:18.079Z,55.54
2022-08-08T00:15:57.182Z,55.60
2022-08-08T00:20:32.708Z,55.80
2022-08-08T00:25:46.379Z,55.80
2022-08-08T00:31:00.702Z,55.79
2022-08-08T00:35:54.386Z,55.76
2022-08-08T00:41:12.382Z,55.74
2022-08-08T00:46:16.593Z,55.75
2022-08-08T00:51:18.107Z,55.78
2022-08-08T00:56:23.917Z,55.84
2022-08-08T01:01:37.967Z,55.86
2022-08-08T01:06:37.646Z,55.84
2022-08-08T01:11:44.864Z,55.87
2022-08-08T01:16:52.089Z,55.88
2022-08-08T01:22:09.912Z,55.83
2022-08-08T01:27:10.637Z,55.82
2022-08-08T01:32:15.776Z,56.02
2022-08-08T01:37:21.887Z,55.85
2022-08-08T01:42:35.783Z,55.93
2022-08-08T01:48:14.499Z,55.89
2022-08-08T01:52:56.032Z,55.79
2022-08-08T01:58:13.342Z,55.64
2022-08-08T02:02:57.555Z,55.66
2022-08-08T02:08:04.796Z,55.53
2022-08-08T02:13:53.336Z,55.51
2022-08-08T02:18:19.211Z,55.60
2022-08-08T02:23:31.658Z,55.64
2022-08-08T02:28:35.027Z,55.55
2022-08-08T02:33:41.427Z,55.47
2022-08-08T02:38:49.215Z,55.47
2022-08-08T02:44:44.853Z,55.46
2022-08-08T02:49:02.447Z,55.39
2022-08-08T02:54:09.711Z,55.43
2022-08-08T02:59:25.959Z,55.42
2022-08-08T03:05:05.204Z,55.47
2022-08-08T03:09:31.441Z,55.52
2022-08-08T03:15:59.702Z,55.43
2022-08-08T03:19:50.878Z,55.47
2022-08-08T03:24:57.043Z,55.63
2022-08-08T03:30:00.202Z,55.66
2022-08-08T03:35:09.547Z,55.64
2022-08-08T03:40:30.203Z,55.76
2022-08-08T03:46:03.033Z,55.74
2022-08-08T03:50:29.134Z,55.62
2022-08-08T03:55:57.259Z,55.59
2022-08-08T04:01:02.657Z,55.60
2022-08-08T04:05:50.710Z,55.58
2022-08-08T04:11:00.047Z,55.54
2022-08-08T04:16:05.633Z,55.54
2022-08-08T04:21:12.356Z,55.50
2022-08-08T04:26:19.711Z,55.52
2022-08-08T04:31:56.650Z,55.49
2022-08-08T04:36:34.023Z,55.46
2022-08-08T04:41:43.197Z,55.50
2022-08-08T04:46:52.504Z,55.53
2022-08-08T04:51:57.890Z,55.65
2022-08-08T04:57:04.863Z,55.82
2022-08-08T05:02:13.509Z,55.95
2022-08-08T05:07:19.252Z,56.09
2022-08-08T05:12:28.922Z,56.05
2022-08-08T05:17:53.668Z,57.14
2022-08-08T05:22:40.871Z,57.51
2022-08-08T05:27:48.071Z,58.11
2022-08-08T05:32:55.222Z,58.34
2022-08-08T05:38:02.414Z,58.83
2022-08-08T05:43:40.021Z,59.37
2022-08-08T05:48:16.899Z,59.22
2022-08-08T05:54:26.265Z,59.57
2022-08-08T05:58:33.399Z,59.86
2022-08-08T06:03:38.558Z,59.61
2022-08-08T06:08:53.198Z,60.10
2022-08-08T06:13:52.943Z,60.20
2022-08-08T06:19:00.184Z,61.02
2022-08-08T06:24:13.993Z,61.07
2022-08-08T06:29:49.345Z,61.29
2022-08-08T06:34:27.391Z,61.01
2022-08-08T06:39:33.346Z,60.87
2022-08-08T06:44:42.243Z,60.54
2022-08-08T06:49:56.173Z,60.82
2022-08-08T06:54:52.015Z,60.78
2022-08-08T07:00:10.218Z,60.64
2022-08-08T07:05:06.476Z,60.59
2022-08-08T07:10:13.669Z,60.64
2022-08-08T07:15:32.529Z,61.17
2022-08-08T07:20:28.400Z,60.46
2022-08-08T07:25:35.310Z,60.49
2022-08-08T07:30:42.494Z,60.61
2022-08-08T07:35:51.258Z,61.20
2022-08-08T07:40:56.907Z,61.46
2022-08-08T07:46:17.645Z,61.10
2022-08-08T07:51:24.355Z,61.06
2022-08-08T07:56:36.436Z,61.67
2022-08-08T08:01:27.084Z,60.73
2022-08-08T08:06:33.063Z,60.17
2022-08-08T08:11:52.476Z,60.58
2022-08-08T08:16:48.515Z,60.78
2022-08-08T08:22:00.674Z,60.62
2022-08-08T08:27:02.825Z,60.86
2022-08-08T08:32:09.299Z,60.59
2022-08-08T08:37:16.500Z,61.04
2022-08-08T08:42:31.593Z,61.63
2022-08-08T08:47:33.766Z,61.48
2022-08-08T08:52:38.167Z,61.62
2022-08-08T08:57:45.371Z,61.65
2022-08-08T09:02:52.566Z,61.55
2022-08-08T09:08:12.799Z,61.26
2022-08-08T09:13:06.972Z,61.02
2022-08-08T09:18:14.219Z,60.66
2022-08-08T09:23:25.739Z,61.34
2022-08-08T09:28:37.437Z,60.50
2022-08-08T09:34:15.851Z,60.39
2022-08-08T09:38:53.110Z,60.21
2022-08-08T09:44:06.236Z,61.61
2022-08-08T09:48:57.338Z,61.26
2022-08-08T09:54:09.661Z,61.46
2022-08-08T09:59:40.322Z,61.39
2022-08-08T10:04:38.533Z,61.38
2022-08-08T10:09:26.189Z,60.60
2022-08-08T10:14:38.193Z,59.92
2022-08-08T10:19:46.309Z,59.97
2022-08-08T10:24:48.048Z,60.22
2022-08-08T10:29:58.759Z,59.04
2022-08-08T10:35:02.500Z,58.63
2022-08-08T10:40:09.780Z,58.77
2022-08-08T10:45:16.940Z,57.79
2022-08-08T10:50:24.124Z,58.30
2022-08-08T10:55:41.700Z,57.59
2022-08-08T11:00:53.443Z,57.49
2022-08-08T11:05:45.729Z,56.30
2022-08-08T11:10:52.985Z,55.99
2022-08-08T11:16:01.404Z,55.41
2022-08-08T11:21:09.800Z,55.46
2022-08-08T11:26:18.734Z,54.81
2022-08-08T11:31:21.804Z,54.74
2022-08-08T11:36:29.560Z,54.38
2022-08-08T11:41:36.193Z,55.18
2022-08-08T11:46:43.380Z,54.87
2022-08-08T11:51:52.277Z,54.76
2022-08-08T11:56:58.488Z,53.94
2022-08-08T12:02:30.449Z,53.96
2022-08-08T12:07:16.730Z,54.06
2022-08-08T12:12:19.482Z,54.21
2022-08-08T12:17:26.719Z,53.60
2022-08-08T12:22:44.803Z,53.33
2022-08-08T12:27:45.548Z,53.67
2022-08-08T12:32:48.428Z,53.23
2022-08-08T12:38:02.009Z,53.23
2022-08-08T12:43:03.791Z,53.10
2022-08-08T12:48:35.867Z,52.57
2022-08-08T12:53:17.185Z,53.39
2022-08-08T12:58:24.458Z,53.53
2022-08-08T13:03:33.520Z,52.90
2022-08-08T13:08:38.839Z,51.94
2022-08-08T13:13:45.995Z,52.26
2022-08-08T13:18:58.236Z,52.12
2022-08-08T13:24:00.375Z,51.90
2022-08-08T13:29:07.566Z,51.45
2022-08-08T13:34:14.792Z,51.79
2022-08-08T13:39:22.102Z,51.21
2022-08-08T13:44:29.256Z,52.02
2022-08-08T13:50:36.015Z,52.31
2022-08-08T13:54:44.207Z,51.65
2022-08-08T13:59:50.791Z,52.09
2022-08-08T14:04:58.012Z,52.14
2022-08-08T14:10:11.788Z,52.33
2022-08-08T14:15:12.453Z,52.38
2022-08-08T14:20:56.436Z,52.49
2022-08-08T14:25:26.912Z,52.52
2022-08-08T14:30:34.103Z,51.45
2022-08-08T14:35:41.330Z,51.61
2022-08-08T14:40:48.546Z,52.22
2022-08-08T14:46:02.963Z,51.33
2022-08-08T14:51:02.940Z,51.33
2022-08-08T14:56:10.147Z,51.85
2022-08-08T15:01:23.767Z,51.96
2022-08-08T15:06:24.953Z,51.49
2022-08-08T15:11:43.092Z,51.54
2022-08-08T15:16:39.385Z,51.64
2022-08-08T15:21:46.658Z,51.74
2022-08-08T15:26:53.928Z,51.69
2022-08-08T15:32:19.947Z,51.70
2022-08-08T15:37:08.326Z,51.68
2022-08-08T15:42:31.238Z,51.67
2022-08-08T15:47:22.875Z,51.61
2022-08-08T15:52:31.309Z,51.56
2022-08-08T15:57:39.900Z,51.51
2022-08-08T16:02:51.188Z,51.38
2022-08-08T16:07:53.837Z,51.32
2022-08-08T16:13:15.850Z,51.32
2022-08-08T16:18:12.102Z,49.75
2022-08-08T16:23:16.090Z,50.72
2022-08-08T16:28:33.957Z,51.09
2022-08-08T16:33:39.412Z,50.40
2022-08-08T16:38:44.712Z,50.92
2022-08-08T16:43:49.105Z,51.01
2022-08-08T16:48:51.308Z,50.93
2022-08-08T16:55:05.725Z,50.90
2022-08-08T16:59:05.786Z,50.83
2022-08-08T17:04:13.063Z,50.87
2022-08-08T17:09:23.839Z,50.90
2022-08-08T17:14:34.102Z,50.84
2022-08-08T17:19:40.894Z,50.84
2022-08-08T17:24:43.727Z,50.84
2022-08-08T17:29:56.738Z,50.84
2022-08-08T17:35:53.858Z,50.80
2022-08-08T17:40:12.848Z,50.80
2022-08-08T17:45:14.187Z,50.82
2022-08-08T17:50:19.767Z,50.77
2022-08-08T17:56:05.884Z,50.94
2022-08-08T18:00:39.043Z,50.96
2022-08-08T18:05:48.064Z,50.79
2022-08-08T18:10:48.669Z,50.39
2022-08-08T18:16:04.294Z,50.25
2022-08-08T18:21:03.155Z,49.87
2022-08-08T18:26:10.258Z,49.77
2022-08-08T18:31:17.497Z,49.54
2022-08-08T18:36:25.473Z,49.64
2022-08-08T18:41:51.806Z,49.41
2022-08-08T18:46:54.874Z,49.25
2022-08-08T18:51:53.734Z,49.35
2022-08-08T18:56:53.695Z,49.05
2022-08-08T19:02:27.394Z,49.00
2022-08-08T19:07:08.106Z,49.07
2022-08-08T19:12:15.282Z,48.97
2022-08-08T19:17:28.764Z,49.16
2022-08-08T19:22:29.696Z,49.59
2022-08-08T19:27:55.748Z,49.70
2022-08-08T19:32:44.058Z,49.61
2022-08-08T19:37:55.367Z,49.76
2022-08-08T19:42:58.533Z,50.30
2022-08-08T19:48:05.810Z,50.76
2022-08-08T19:53:46.754Z,50.59
2022-08-08T19:58:20.322Z,50.43
2022-08-08T20:04:01.263Z,50.71
2022-08-08T20:08:34.931Z,50.47
2022-08-08T20:14:13.905Z,50.66
2022-08-08T20:18:52.655Z,50.38
2022-08-08T20:23:58.201Z,50.58
2022-08-08T20:29:04.038Z,51.22
2022-08-08T20:34:29.166Z,51.49
2022-08-08T20:39:18.465Z,50.88
2022-08-08T20:44:25.646Z,50.99
2022-08-08T20:49:39.971Z,51.38
2022-08-08T20:54:40.037Z,51.05
2022-08-08T20:59:47.278Z,51.05
2022-08-08T21:04:54.468Z,51.64
2022-08-08T21:10:12.473Z,51.84
2022-08-08T21:15:09.389Z,52.28
2022-08-08T21:20:16.108Z,52.51
2022-08-08T21:25:23.339Z,52.43
2022-08-08T21:30:30.594Z,52.57
2022-08-08T21:36:17.152Z,52.67
2022-08-08T21:40:55.658Z,52.83
2022-08-08T21:48:20.297Z,52.72
2022-08-08T21:50:59.541Z,52.33
2022-08-08T21:56:26.642Z,52.19
2022-08-08T22:01:27.787Z,51.88
2022-08-08T22:06:30.847Z,51.48
2022-08-08T22:11:58.837Z,51.25
2022-08-08T22:16:35.667Z,50.84
2022-08-08T22:21:42.823Z,50.75
2022-08-08T22:27:01.232Z,50.95
2022-08-08T22:32:02.189Z,50.58
2022-08-08T22:37:05.163Z,50.64
2022-08-08T22:42:12.359Z,50.92
2022-08-08T22:47:19.619Z,51.06
2022-08-08T22:52:33.719Z,50.98
2022-08-08T22:57:44.117Z,50.96
2022-08-08T23:02:41.257Z,51.32
2022-08-08T23:07:57.196Z,51.22
2022-08-08T23:12:56.125Z,51.38
2022-08-08T23:18:02.793Z,51.48
2022-08-08T23:23:09.975Z,51.60
2022-08-08T23:28:17.684Z,51.19
2022-08-08T23:34:17.563Z,51.56
2022-08-08T23:38:31.548Z,51.37
2022-08-08T23:43:45.832Z,51.55
2022-08-08T23:49:00.077Z,51.74
2022-08-08T23:54:05.760Z,51.87
2022-08-08T23:59:00.476Z,51.77
